sensor_id;sensor_type;location;lat;lon;timestamp;pressure;altitude;pressure_sealevel;temperature;humidity
46379;BME280;32084;42.254;22.744;2023-05-25T00:00:26;95112.44;;;15.13;87.71
46379;BME280;32084;42.254;22.744;2023-05-25T00:02:52;95109.50;;;14.93;89.33
46379;BME280;32084;42.254;22.744;2023-05-25T00:05:19;95115.81;;;15.00;88.21
46379;BME280;32084;42.254;22.744;2023-05-25T00:07:46;95119.16;;;15.02;87.44
46379;BME280;32084;42.254;22.744;2023-05-25T00:10:12;95125.31;;;15.17;86.86
46379;BME280;32084;42.254;22.744;2023-05-25T00:12:38;95126.25;;;15.25;86.31
46379;BME280;32084;42.254;22.744;2023-05-25T00:15:05;95129.06;;;15.16;87.35
46379;BME280;32084;42.254;22.744;2023-05-25T00:17:32;95126.63;;;15.21;86.33
46379;BME280;32084;42.254;22.744;2023-05-25T00:19:58;95128.88;;;15.18;86.61
46379;BME280;32084;42.254;22.744;2023-05-25T00:22:34;95132.72;;;14.94;88.08
46379;BME280;32084;42.254;22.744;2023-05-25T00:25:01;95133.56;;;14.94;87.61
46379;BME280;32084;42.254;22.744;2023-05-25T00:27:27;95143.03;;;14.90;87.30
46379;BME280;32084;42.254;22.744;2023-05-25T00:29:53;95136.66;;;14.76;88.02
46379;BME280;32084;42.254;22.744;2023-05-25T00:32:19;95132.84;;;14.71;87.96
46379;BME280;32084;42.254;22.744;2023-05-25T00:34:45;95141.56;;;14.73;87.27
46379;BME280;32084;42.254;22.744;2023-05-25T00:37:13;95132.69;;;14.72;88.05
46379;BME280;32084;42.254;22.744;2023-05-25T00:39:39;95133.22;;;14.68;88.68
46379;BME280;32084;42.254;22.744;2023-05-25T00:42:06;95139.25;;;14.70;87.48
46379;BME280;32084;42.254;22.744;2023-05-25T00:44:32;95147.44;;;14.61;88.13
46379;BME280;32084;42.254;22.744;2023-05-25T00:46:59;95139.03;;;14.56;87.59
46379;BME280;32084;42.254;22.744;2023-05-25T00:49:26;95142.13;;;14.53;88.50
46379;BME280;32084;42.254;22.744;2023-05-25T00:51:53;95150.38;;;14.52;88.58
46379;BME280;32084;42.254;22.744;2023-05-25T00:54:19;95142.56;;;14.42;88.98
46379;BME280;32084;42.254;22.744;2023-05-25T00:56:50;95142.28;;;14.37;89.33
46379;BME280;32084;42.254;22.744;2023-05-25T00:59:18;95142.97;;;14.01;90.80
46379;BME280;32084;42.254;22.744;2023-05-25T01:01:48;95150.53;;;13.82;91.66
46379;BME280;32084;42.254;22.744;2023-05-25T01:04:18;95143.78;;;13.86;92.21
46379;BME280;32084;42.254;22.744;2023-05-25T01:06:47;95135.75;;;14.01;90.32
46379;BME280;32084;42.254;22.744;2023-05-25T01:09:15;95141.63;;;14.20;89.26
46379;BME280;32084;42.254;22.744;2023-05-25T01:11:41;95146.38;;;14.33;88.39
46379;BME280;32084;42.254;22.744;2023-05-25T01:14:09;95145.78;;;14.08;90.36
46379;BME280;32084;42.254;22.744;2023-05-25T01:16:35;95145.13;;;14.05;89.89
46379;BME280;32084;42.254;22.744;2023-05-25T01:19:02;95142.91;;;14.09;89.14
46379;BME280;32084;42.254;22.744;2023-05-25T01:24:28;95145.13;;;14.20;89.59
46379;BME280;32084;42.254;22.744;2023-05-25T01:26:57;95136.13;;;14.13;90.23
46379;BME280;32084;42.254;22.744;2023-05-25T01:29:26;95138.28;;;14.18;89.97
46379;BME280;32084;42.254;22.744;2023-05-25T01:31:53;95139.38;;;14.09;90.17
46379;BME280;32084;42.254;22.744;2023-05-25T01:34:20;95142.13;;;13.85;90.34
46379;BME280;32084;42.254;22.744;2023-05-25T01:36:47;95141.47;;;13.83;90.44
46379;BME280;32084;42.254;22.744;2023-05-25T01:39:14;95136.66;;;13.94;89.71
46379;BME280;32084;42.254;22.744;2023-05-25T01:41:40;95138.81;;;13.98;89.73
46379;BME280;32084;42.254;22.744;2023-05-25T01:44:06;95134.34;;;13.91;89.22
46379;BME280;32084;42.254;22.744;2023-05-25T01:46:39;95136.09;;;13.83;90.13
46379;BME280;32084;42.254;22.744;2023-05-25T01:54:20;95145.53;;;13.56;90.76
46379;BME280;32084;42.254;22.744;2023-05-25T01:56:48;95145.53;;;13.56;91.10
46379;BME280;32084;42.254;22.744;2023-05-25T01:59:15;95147.34;;;13.64;90.36
46379;BME280;32084;42.254;22.744;2023-05-25T02:01:44;95139.22;;;13.72;89.37
46379;BME280;32084;42.254;22.744;2023-05-25T02:04:10;95143.16;;;13.38;90.36
46379;BME280;32084;42.254;22.744;2023-05-25T02:06:37;95150.50;;;13.13;92.16
46379;BME280;32084;42.254;22.744;2023-05-25T02:09:03;95147.22;;;13.26;91.76
46379;BME280;32084;42.254;22.744;2023-05-25T02:11:29;95151.38;;;13.37;91.67
46379;BME280;32084;42.254;22.744;2023-05-25T02:13:55;95147.78;;;13.53;90.50
46379;BME280;32084;42.254;22.744;2023-05-25T02:16:21;95149.31;;;13.47;90.31
46379;BME280;32084;42.254;22.744;2023-05-25T02:18:47;95147.81;;;13.44;90.71
46379;BME280;32084;42.254;22.744;2023-05-25T02:21:13;95145.66;;;13.40;90.66
46379;BME280;32084;42.254;22.744;2023-05-25T02:23:39;95156.44;;;13.32;90.63
46379;BME280;32084;42.254;22.744;2023-05-25T02:26:05;95148.38;;;13.32;90.90
46379;BME280;32084;42.254;22.744;2023-05-25T02:28:31;95158.13;;;13.33;90.70
46379;BME280;32084;42.254;22.744;2023-05-25T02:30:57;95163.34;;;13.34;90.98
46379;BME280;32084;42.254;22.744;2023-05-25T02:33:23;95158.31;;;13.31;91.35
46379;BME280;32084;42.254;22.744;2023-05-25T02:35:48;95173.41;;;13.32;91.44
46379;BME280;32084;42.254;22.744;2023-05-25T02:38:15;95175.22;;;13.40;91.07
46379;BME280;32084;42.254;22.744;2023-05-25T02:40:41;95167.38;;;13.30;90.33
46379;BME280;32084;42.254;22.744;2023-05-25T02:43:07;95173.41;;;13.32;90.08
46379;BME280;32084;42.254;22.744;2023-05-25T02:45:33;95178.78;;;13.24;89.96
46379;BME280;32084;42.254;22.744;2023-05-25T02:47:59;95179.16;;;13.21;90.43
46379;BME280;32084;42.254;22.744;2023-05-25T02:50:25;95182.09;;;13.03;90.91
46379;BME280;32084;42.254;22.744;2023-05-25T02:52:51;95181.75;;;13.06;90.81
46379;BME280;32084;42.254;22.744;2023-05-25T02:55:17;95179.28;;;12.96;90.89
46379;BME280;32084;42.254;22.744;2023-05-25T02:57:43;95176.06;;;13.01;90.96
46379;BME280;32084;42.254;22.744;2023-05-25T03:00:09;95185.25;;;13.06;90.88
46379;BME280;32084;42.254;22.744;2023-05-25T03:02:38;95176.94;;;12.93;91.87
46379;BME280;32084;42.254;22.744;2023-05-25T03:05:04;95187.69;;;12.93;91.68
46379;BME280;32084;42.254;22.744;2023-05-25T03:07:31;95187.81;;;13.00;91.08
46379;BME280;32084;42.254;22.744;2023-05-25T03:09:57;95187.59;;;13.09;92.13
46379;BME280;32084;42.254;22.744;2023-05-25T03:12:24;95192.75;;;13.19;90.78
46379;BME280;32084;42.254;22.744;2023-05-25T03:14:50;95187.97;;;13.29;90.80
46379;BME280;32084;42.254;22.744;2023-05-25T03:17:16;95196.22;;;13.36;90.90
46379;BME280;32084;42.254;22.744;2023-05-25T03:19:42;95193.03;;;13.33;90.25
46379;BME280;32084;42.254;22.744;2023-05-25T03:22:08;95194.56;;;13.27;90.25
46379;BME280;32084;42.254;22.744;2023-05-25T03:24:34;95207.75;;;13.05;91.40
46379;BME280;32084;42.254;22.744;2023-05-25T03:27:00;95215.16;;;13.03;91.46
46379;BME280;32084;42.254;22.744;2023-05-25T03:29:26;95209.69;;;13.20;90.62
46379;BME280;32084;42.254;22.744;2023-05-25T03:31:52;95203.38;;;13.44;89.68
46379;BME280;32084;42.254;22.744;2023-05-25T03:34:18;95206.56;;;13.47;90.00
46379;BME280;32084;42.254;22.744;2023-05-25T03:36:44;95210.47;;;13.37;90.75
46379;BME280;32084;42.254;22.744;2023-05-25T03:39:12;95216.75;;;13.52;90.50
46379;BME280;32084;42.254;22.744;2023-05-25T03:41:38;95205.25;;;13.66;90.79
46379;BME280;32084;42.254;22.744;2023-05-25T03:44:04;95213.56;;;13.80;90.43
46379;BME280;32084;42.254;22.744;2023-05-25T03:46:30;95218.69;;;13.66;90.15
46379;BME280;32084;42.254;22.744;2023-05-25T03:48:56;95217.47;;;13.69;90.06
46379;BME280;32084;42.254;22.744;2023-05-25T03:51:22;95216.81;;;13.90;89.93
46379;BME280;32084;42.254;22.744;2023-05-25T03:53:48;95221.47;;;14.19;88.47
46379;BME280;32084;42.254;22.744;2023-05-25T03:56:14;95227.22;;;14.31;88.46
46379;BME280;32084;42.254;22.744;2023-05-25T03:58:40;95240.06;;;14.44;89.85
46379;BME280;32084;42.254;22.744;2023-05-25T04:01:06;95237.53;;;14.66;88.41
46379;BME280;32084;42.254;22.744;2023-05-25T04:03:34;95244.56;;;14.81;88.74
46379;BME280;32084;42.254;22.744;2023-05-25T04:06:00;95245.78;;;14.94;88.57
46379;BME280;32084;42.254;22.744;2023-05-25T04:08:27;95237.97;;;15.14;88.25
46379;BME280;32084;42.254;22.744;2023-05-25T04:10:53;95237.50;;;15.25;89.11
46379;BME280;32084;42.254;22.744;2023-05-25T04:13:19;95244.16;;;15.44;87.85
46379;BME280;32084;42.254;22.744;2023-05-25T04:15:45;95232.38;;;15.67;87.66
46379;BME280;32084;42.254;22.744;2023-05-25T04:18:11;95248.75;;;16.02;86.28
46379;BME280;32084;42.254;22.744;2023-05-25T04:20:37;95242.38;;;16.31;85.65
46379;BME280;32084;42.254;22.744;2023-05-25T04:23:03;95252.38;;;16.37;86.85
46379;BME280;32084;42.254;22.744;2023-05-25T04:25:29;95248.72;;;16.45;87.60
46379;BME280;32084;42.254;22.744;2023-05-25T04:27:56;95245.25;;;16.79;85.44
46379;BME280;32084;42.254;22.744;2023-05-25T04:30:22;95247.97;;;17.14;81.99
46379;BME280;32084;42.254;22.744;2023-05-25T04:32:48;95253.44;;;17.21;80.57
46379;BME280;32084;42.254;22.744;2023-05-25T04:35:15;95258.31;;;17.45;77.72
46379;BME280;32084;42.254;22.744;2023-05-25T04:37:41;95265.19;;;17.48;80.13
46379;BME280;32084;42.254;22.744;2023-05-25T04:40:07;95267.66;;;17.36;81.87
46379;BME280;32084;42.254;22.744;2023-05-25T04:42:39;95264.44;;;17.67;80.22
46379;BME280;32084;42.254;22.744;2023-05-25T04:45:06;95267.00;;;17.82;79.92
46379;BME280;32084;42.254;22.744;2023-05-25T04:47:32;95274.88;;;17.70;80.20
46379;BME280;32084;42.254;22.744;2023-05-25T04:49:59;95280.41;;;17.55;81.63
46379;BME280;32084;42.254;22.744;2023-05-25T04:52:26;95271.06;;;17.16;81.20
46379;BME280;32084;42.254;22.744;2023-05-25T04:54:51;95279.38;;;17.15;82.50
46379;BME280;32084;42.254;22.744;2023-05-25T04:57:18;95275.38;;;17.04;82.03
46379;BME280;32084;42.254;22.744;2023-05-25T04:59:44;95277.84;;;16.77;82.16
46379;BME280;32084;42.254;22.744;2023-05-25T05:02:10;95274.41;;;16.62;84.88
46379;BME280;32084;42.254;22.744;2023-05-25T05:04:36;95281.00;;;16.81;84.67
46379;BME280;32084;42.254;22.744;2023-05-25T05:07:03;95282.63;;;16.75;83.82
46379;BME280;32084;42.254;22.744;2023-05-25T05:09:29;95282.63;;;16.75;84.90
46379;BME280;32084;42.254;22.744;2023-05-25T05:11:55;95283.25;;;16.77;83.96
46379;BME280;32084;42.254;22.744;2023-05-25T05:14:21;95278.19;;;16.68;83.29
46379;BME280;32084;42.254;22.744;2023-05-25T05:16:47;95284.06;;;16.78;84.88
46379;BME280;32084;42.254;22.744;2023-05-25T05:19:13;95274.22;;;16.92;81.58
46379;BME280;32084;42.254;22.744;2023-05-25T05:21:39;95279.94;;;17.04;81.00
46379;BME280;32084;42.254;22.744;2023-05-25T05:24:05;95284.78;;;17.15;81.12
46379;BME280;32084;42.254;22.744;2023-05-25T05:26:31;95284.44;;;17.31;80.62
46379;BME280;32084;42.254;22.744;2023-05-25T05:28:57;95282.00;;;17.43;80.12
46379;BME280;32084;42.254;22.744;2023-05-25T05:31:23;95283.38;;;17.26;79.60
46379;BME280;32084;42.254;22.744;2023-05-25T05:33:49;95285.69;;;17.29;79.94
46379;BME280;32084;42.254;22.744;2023-05-25T05:36:16;95290.09;;;17.36;81.04
46379;BME280;32084;42.254;22.744;2023-05-25T05:38:42;95283.31;;;17.54;79.86
46379;BME280;32084;42.254;22.744;2023-05-25T05:41:11;95277.13;;;17.67;78.15
46379;BME280;32084;42.254;22.744;2023-05-25T05:43:41;95278.63;;;17.83;77.78
46379;BME280;32084;42.254;22.744;2023-05-25T05:46:09;95275.56;;;17.86;77.08
46379;BME280;32084;42.254;22.744;2023-05-25T05:48:35;95268.63;;;17.76;77.76
46379;BME280;32084;42.254;22.744;2023-05-25T05:51:02;95275.09;;;17.82;78.64
46379;BME280;32084;42.254;22.744;2023-05-25T05:53:28;95279.53;;;17.90;79.54
46379;BME280;32084;42.254;22.744;2023-05-25T05:55:54;95282.47;;;17.95;79.45
46379;BME280;32084;42.254;22.744;2023-05-25T05:58:27;95287.09;;;18.14;79.57
46379;BME280;32084;42.254;22.744;2023-05-25T06:00:54;95287.09;;;18.14;74.41
46379;BME280;32084;42.254;22.744;2023-05-25T06:03:21;95283.78;;;18.26;73.38
46379;BME280;32084;42.254;22.744;2023-05-25T06:05:47;95289.22;;;18.66;73.83
46379;BME280;32084;42.254;22.744;2023-05-25T06:08:13;95280.44;;;19.30;72.81
46379;BME280;32084;42.254;22.744;2023-05-25T06:10:39;95279.16;;;19.98;69.76
46379;BME280;32084;42.254;22.744;2023-05-25T06:13:05;95276.50;;;20.23;68.76
46379;BME280;32084;42.254;22.744;2023-05-25T06:15:32;95277.44;;;20.42;67.24
46379;BME280;32084;42.254;22.744;2023-05-25T06:17:58;95281.59;;;20.77;66.58
46379;BME280;32084;42.254;22.744;2023-05-25T06:20:25;95280.72;;;21.08;66.44
46379;BME280;32084;42.254;22.744;2023-05-25T06:22:51;95275.09;;;21.47;64.94
46379;BME280;32084;42.254;22.744;2023-05-25T06:25:17;95278.06;;;21.63;64.70
46379;BME280;32084;42.254;22.744;2023-05-25T06:27:43;95273.59;;;21.88;64.31
46379;BME280;32084;42.254;22.744;2023-05-25T06:30:09;95280.22;;;22.10;64.00
46379;BME280;32084;42.254;22.744;2023-05-25T06:32:35;95279.00;;;22.36;62.58
46379;BME280;32084;42.254;22.744;2023-05-25T06:35:01;95279.16;;;22.41;62.06
46379;BME280;32084;42.254;22.744;2023-05-25T06:37:27;95272.41;;;22.44;61.23
46379;BME280;32084;42.254;22.744;2023-05-25T06:40:00;95277.75;;;22.51;61.95
46379;BME280;32084;42.254;22.744;2023-05-25T06:42:27;95278.72;;;22.45;62.82
46379;BME280;32084;42.254;22.744;2023-05-25T06:44:53;95269.22;;;22.47;60.32
46379;BME280;32084;42.254;22.744;2023-05-25T06:47:19;95265.19;;;22.92;60.12
46379;BME280;32084;42.254;22.744;2023-05-25T06:49:44;95265.94;;;23.11;60.26
46379;BME280;32084;42.254;22.744;2023-05-25T06:52:10;95262.84;;;23.07;57.88
46379;BME280;32084;42.254;22.744;2023-05-25T06:54:36;95260.81;;;23.14;58.13
46379;BME280;32084;42.254;22.744;2023-05-25T06:57:03;95257.94;;;23.45;60.73
46379;BME280;32084;42.254;22.744;2023-05-25T06:59:29;95258.53;;;23.35;58.95
46379;BME280;32084;42.254;22.744;2023-05-25T07:01:55;95261.59;;;23.74;58.82
46379;BME280;32084;42.254;22.744;2023-05-25T07:04:23;95262.63;;;24.25;57.89
46379;BME280;32084;42.254;22.744;2023-05-25T07:06:49;95260.28;;;24.17;58.59
46379;BME280;32084;42.254;22.744;2023-05-25T07:09:16;95264.19;;;23.81;57.14
46379;BME280;32084;42.254;22.744;2023-05-25T07:11:42;95260.41;;;23.70;58.29
46379;BME280;32084;42.254;22.744;2023-05-25T07:14:08;95255.25;;;23.97;57.23
46379;BME280;32084;42.254;22.744;2023-05-25T07:16:34;95253.91;;;24.11;57.88
46379;BME280;32084;42.254;22.744;2023-05-25T07:19:00;95253.44;;;24.31;55.54
46379;BME280;32084;42.254;22.744;2023-05-25T07:21:26;95258.97;;;24.20;55.72
46379;BME280;32084;42.254;22.744;2023-05-25T07:23:52;95255.53;;;24.12;56.87
46379;BME280;32084;42.254;22.744;2023-05-25T07:26:18;95249.78;;;24.26;55.38
46379;BME280;32084;42.254;22.744;2023-05-25T07:28:47;95257.19;;;24.88;56.53
46379;BME280;32084;42.254;22.744;2023-05-25T07:31:13;95247.91;;;25.06;55.18
46379;BME280;32084;42.254;22.744;2023-05-25T07:33:39;95248.41;;;24.86;53.84
46379;BME280;32084;42.254;22.744;2023-05-25T07:36:05;95251.81;;;24.76;54.36
46379;BME280;32084;42.254;22.744;2023-05-25T07:38:31;95241.22;;;24.34;57.83
46379;BME280;32084;42.254;22.744;2023-05-25T07:40:57;95248.38;;;23.94;59.35
46379;BME280;32084;42.254;22.744;2023-05-25T07:43:23;95247.59;;;23.70;59.89
46379;BME280;32084;42.254;22.744;2023-05-25T07:45:49;95239.38;;;23.82;58.80
46379;BME280;32084;42.254;22.744;2023-05-25T07:48:15;95232.88;;;24.12;59.53
46379;BME280;32084;42.254;22.744;2023-05-25T07:50:42;95232.72;;;23.90;57.74
46379;BME280;32084;42.254;22.744;2023-05-25T07:53:07;95229.16;;;23.89;59.37
46379;BME280;32084;42.254;22.744;2023-05-25T07:55:33;95232.78;;;24.07;59.53
46379;BME280;32084;42.254;22.744;2023-05-25T07:58:00;95227.59;;;23.93;58.87
46379;BME280;32084;42.254;22.744;2023-05-25T08:00:26;95222.53;;;23.85;59.50
46379;BME280;32084;42.254;22.744;2023-05-25T08:02:52;95226.31;;;24.42;57.88
46379;BME280;32084;42.254;22.744;2023-05-25T08:05:18;95229.50;;;25.35;53.12
46379;BME280;32084;42.254;22.744;2023-05-25T08:07:44;95227.41;;;25.42;53.73
46379;BME280;32084;42.254;22.744;2023-05-25T08:10:10;95221.13;;;25.64;54.72
46379;BME280;32084;42.254;22.744;2023-05-25T08:12:36;95229.97;;;25.71;52.79
46379;BME280;32084;42.254;22.744;2023-05-25T08:15:03;95216.94;;;25.78;53.16
46379;BME280;32084;42.254;22.744;2023-05-25T08:17:29;95217.22;;;26.26;53.31
46379;BME280;32084;42.254;22.744;2023-05-25T08:19:55;95221.34;;;26.83;52.40
46379;BME280;32084;42.254;22.744;2023-05-25T08:22:21;95218.31;;;27.17;47.91
46379;BME280;32084;42.254;22.744;2023-05-25T08:24:47;95213.84;;;27.11;46.86
46379;BME280;32084;42.254;22.744;2023-05-25T08:27:13;95207.69;;;26.93;49.54
46379;BME280;32084;42.254;22.744;2023-05-25T08:29:39;95217.28;;;26.91;49.80
46379;BME280;32084;42.254;22.744;2023-05-25T08:32:05;95203.44;;;27.13;49.96
46379;BME280;32084;42.254;22.744;2023-05-25T08:34:32;95209.81;;;27.23;48.41
46379;BME280;32084;42.254;22.744;2023-05-25T08:36:58;95212.19;;;26.18;47.86
46379;BME280;32084;42.254;22.744;2023-05-25T08:39:23;95207.81;;;25.50;52.56
46379;BME280;32084;42.254;22.744;2023-05-25T08:41:50;95206.59;;;25.85;51.80
46379;BME280;32084;42.254;22.744;2023-05-25T08:44:16;95212.19;;;25.74;51.20
46379;BME280;32084;42.254;22.744;2023-05-25T08:46:42;95208.03;;;25.27;51.55
46379;BME280;32084;42.254;22.744;2023-05-25T08:49:12;95214.34;;;25.10;54.94
46379;BME280;32084;42.254;22.744;2023-05-25T08:51:45;95210.22;;;25.91;53.07
46379;BME280;32084;42.254;22.744;2023-05-25T08:54:12;95209.03;;;26.58;53.50
46379;BME280;32084;42.254;22.744;2023-05-25T08:56:49;95209.81;;;26.86;49.47
46379;BME280;32084;42.254;22.744;2023-05-25T09:02:00;95209.34;;;27.32;49.63
46379;BME280;32084;42.254;22.744;2023-05-25T09:04:29;95217.06;;;27.35;45.99
46379;BME280;32084;42.254;22.744;2023-05-25T09:06:55;95219.66;;;26.22;48.29
46379;BME280;32084;42.254;22.744;2023-05-25T09:09:22;95215.69;;;25.47;49.38
46379;BME280;32084;42.254;22.744;2023-05-25T09:11:48;95217.22;;;25.21;49.95
46379;BME280;32084;42.254;22.744;2023-05-25T09:14:15;95222.72;;;24.87;53.75
46379;BME280;32084;42.254;22.744;2023-05-25T09:16:41;95217.56;;;24.73;53.04
46379;BME280;32084;42.254;22.744;2023-05-25T09:19:07;95212.09;;;24.73;53.26
46379;BME280;32084;42.254;22.744;2023-05-25T09:21:33;95211.03;;;24.58;52.09
46379;BME280;32084;42.254;22.744;2023-05-25T09:23:59;95212.63;;;24.25;54.23
46379;BME280;32084;42.254;22.744;2023-05-25T09:26:26;95212.09;;;24.11;54.90
46379;BME280;32084;42.254;22.744;2023-05-25T09:28:52;95218.63;;;23.81;55.65
46379;BME280;32084;42.254;22.744;2023-05-25T09:31:18;95219.25;;;23.59;58.86
46379;BME280;32084;42.254;22.744;2023-05-25T09:33:44;95222.41;;;23.28;63.07
46379;BME280;32084;42.254;22.744;2023-05-25T09:36:11;95229.88;;;23.09;61.57
46379;BME280;32084;42.254;22.744;2023-05-25T09:38:37;95233.97;;;22.88;64.05
46379;BME280;32084;42.254;22.744;2023-05-25T09:41:04;95242.28;;;22.69;62.51
46379;BME280;32084;42.254;22.744;2023-05-25T09:43:31;95237.53;;;22.76;62.10
46379;BME280;32084;42.254;22.744;2023-05-25T09:45:58;95244.88;;;22.76;64.71
46379;BME280;32084;42.254;22.744;2023-05-25T09:48:24;95256.69;;;22.58;65.77
46379;BME280;32084;42.254;22.744;2023-05-25T09:50:51;95277.75;;;22.39;63.47
46379;BME280;32084;42.254;22.744;2023-05-25T09:53:17;95299.66;;;21.95;64.04
46379;BME280;32084;42.254;22.744;2023-05-25T09:55:43;95330.91;;;21.31;66.48
46379;BME280;32084;42.254;22.744;2023-05-25T09:58:12;95336.44;;;20.67;71.64
46379;BME280;32084;42.254;22.744;2023-05-25T10:00:38;95336.41;;;19.90;78.19
46379;BME280;32084;42.254;22.744;2023-05-25T10:03:05;95332.31;;;19.47;79.18
46379;BME280;32084;42.254;22.744;2023-05-25T10:05:32;95344.25;;;19.06;85.95
46379;BME280;32084;42.254;22.744;2023-05-25T10:07:58;95374.44;;;18.77;86.00
46379;BME280;32084;42.254;22.744;2023-05-25T10:10:26;95386.09;;;18.64;87.08
46379;BME280;32084;42.254;22.744;2023-05-25T10:12:52;95384.56;;;18.41;89.11
46379;BME280;32084;42.254;22.744;2023-05-25T10:15:20;95384.19;;;18.44;90.38
46379;BME280;32084;42.254;22.744;2023-05-25T10:17:51;95388.97;;;18.49;86.94
46379;BME280;32084;42.254;22.744;2023-05-25T10:20:18;95389.59;;;18.44;88.44
46379;BME280;32084;42.254;22.744;2023-05-25T10:22:47;95391.69;;;18.42;87.76
46379;BME280;32084;42.254;22.744;2023-05-25T10:25:23;95390.19;;;18.40;88.81
46379;BME280;32084;42.254;22.744;2023-05-25T10:27:55;95414.94;;;18.23;89.05
46379;BME280;32084;42.254;22.744;2023-05-25T10:30:22;95429.81;;;17.99;92.85
46379;BME280;32084;42.254;22.744;2023-05-25T10:32:50;95432.56;;;17.78;93.63
46379;BME280;32084;42.254;22.744;2023-05-25T10:35:17;95441.91;;;17.75;93.66
46379;BME280;32084;42.254;22.744;2023-05-25T10:37:43;95432.53;;;17.71;93.53
46379;BME280;32084;42.254;22.744;2023-05-25T10:40:11;95423.84;;;17.82;93.06
46379;BME280;32084;42.254;22.744;2023-05-25T10:42:38;95418.75;;;17.94;92.00
46379;BME280;32084;42.254;22.744;2023-05-25T10:45:06;95413.56;;;17.99;90.88
46379;BME280;32084;42.254;22.744;2023-05-25T10:47:36;95411.31;;;18.03;91.40
46379;BME280;32084;42.254;22.744;2023-05-25T10:50:03;95408.59;;;18.03;91.13
46379;BME280;32084;42.254;22.744;2023-05-25T10:52:30;95409.41;;;18.03;91.04
46379;BME280;32084;42.254;22.744;2023-05-25T10:55:00;95400.03;;;17.99;91.11
46379;BME280;32084;42.254;22.744;2023-05-25T10:57:27;95405.28;;;18.07;90.22
46379;BME280;32084;42.254;22.744;2023-05-25T10:59:54;95403.56;;;18.00;90.26
46379;BME280;32084;42.254;22.744;2023-05-25T11:02:27;95399.22;;;18.05;89.93
46379;BME280;32084;42.254;22.744;2023-05-25T11:07:57;95411.34;;;17.81;93.88
46379;BME280;32084;42.254;22.744;2023-05-25T11:13:31;95409.59;;;17.95;89.96
46379;BME280;32084;42.254;22.744;2023-05-25T11:18:37;95409.03;;;18.06;89.24
46379;BME280;32084;42.254;22.744;2023-05-25T11:21:10;95402.75;;;17.99;91.01
46379;BME280;32084;42.254;22.744;2023-05-25T11:23:37;95401.09;;;18.05;90.25
46379;BME280;32084;42.254;22.744;2023-05-25T11:26:04;95410.22;;;17.97;94.88
46379;BME280;32084;42.254;22.744;2023-05-25T11:28:31;95397.91;;;17.88;94.97
46379;BME280;32084;42.254;22.744;2023-05-25T11:30:57;95392.66;;;17.80;95.96
46379;BME280;32084;42.254;22.744;2023-05-25T11:33:24;95383.13;;;17.90;93.27
46379;BME280;32084;42.254;22.744;2023-05-25T11:35:50;95380.50;;;18.04;90.70
46379;BME280;32084;42.254;22.744;2023-05-25T11:38:16;95366.22;;;18.23;87.85
46379;BME280;32084;42.254;22.744;2023-05-25T11:40:42;95379.28;;;18.13;88.37
46379;BME280;32084;42.254;22.744;2023-05-25T11:43:08;95373.56;;;17.94;89.85
46379;BME280;32084;42.254;22.744;2023-05-25T11:45:36;95368.31;;;17.80;89.65
46379;BME280;32084;42.254;22.744;2023-05-25T11:48:03;95368.88;;;17.68;90.89
46379;BME280;32084;42.254;22.744;2023-05-25T11:50:29;95376.94;;;17.62;93.04
46379;BME280;32084;42.254;22.744;2023-05-25T11:52:55;95370.94;;;17.66;94.48
46379;BME280;32084;42.254;22.744;2023-05-25T11:55:21;95371.41;;;17.76;95.08
46379;BME280;32084;42.254;22.744;2023-05-25T11:57:53;95365.91;;;17.98;89.62
46379;BME280;32084;42.254;22.744;2023-05-25T12:00:26;95351.81;;;18.16;87.75
46379;BME280;32084;42.254;22.744;2023-05-25T12:02:53;95345.34;;;18.17;87.84
46379;BME280;32084;42.254;22.744;2023-05-25T12:05:19;95334.72;;;18.09;93.35
46379;BME280;32084;42.254;22.744;2023-05-25T12:07:45;95310.38;;;18.02;92.50
46379;BME280;32084;42.254;22.744;2023-05-25T12:10:13;95334.97;;;18.21;95.20
46379;BME280;32084;42.254;22.744;2023-05-25T12:12:41;95328.34;;;18.30;98.46
46379;BME280;32084;42.254;22.744;2023-05-25T12:15:11;95327.53;;;18.43;96.37
46379;BME280;32084;42.254;22.744;2023-05-25T12:17:41;95320.88;;;18.59;95.18
46379;BME280;32084;42.254;22.744;2023-05-25T12:20:08;95312.16;;;18.63;96.37
46379;BME280;32084;42.254;22.744;2023-05-25T12:22:36;95315.69;;;18.64;95.98
46379;BME280;32084;42.254;22.744;2023-05-25T12:25:03;95303.41;;;18.75;95.35
46379;BME280;32084;42.254;22.744;2023-05-25T12:27:30;95295.09;;;18.89;97.51
46379;BME280;32084;42.254;22.744;2023-05-25T12:29:57;95291.31;;;19.24;95.13
46379;BME280;32084;42.254;22.744;2023-05-25T12:32:23;95282.09;;;19.31;94.53
46379;BME280;32084;42.254;22.744;2023-05-25T12:34:49;95286.47;;;19.39;90.56
46379;BME280;32084;42.254;22.744;2023-05-25T12:37:16;95283.13;;;19.37;88.99
46379;BME280;32084;42.254;22.744;2023-05-25T12:39:44;95275.56;;;19.53;88.11
46379;BME280;32084;42.254;22.744;2023-05-25T12:42:11;95271.19;;;19.58;91.87
46379;BME280;32084;42.254;22.744;2023-05-25T12:48:00;95258.28;;;19.47;92.60
46379;BME280;32084;42.254;22.744;2023-05-25T12:50:26;95250.56;;;19.50;89.16
46379;BME280;32084;42.254;22.744;2023-05-25T12:52:58;95252.41;;;19.57;88.32
46379;BME280;32084;42.254;22.744;2023-05-25T12:55:25;95243.38;;;19.69;89.39
46379;BME280;32084;42.254;22.744;2023-05-25T12:57:53;95237.72;;;19.84;87.38
46379;BME280;32084;42.254;22.744;2023-05-25T13:00:21;95240.56;;;19.96;88.54
46379;BME280;32084;42.254;22.744;2023-05-25T13:02:48;95245.53;;;19.99;91.83
46379;BME280;32084;42.254;22.744;2023-05-25T13:05:22;95243.06;;;19.98;89.49
46379;BME280;32084;42.254;22.744;2023-05-25T13:07:48;95236.19;;;19.95;86.43
46379;BME280;32084;42.254;22.744;2023-05-25T13:10:15;95231.97;;;19.99;88.80